Time;durP1;ratioP1;P1;durP2;ratioP2;P2;SDS_P1;SDS_P2;PMS_P1;PMS_P2;Temp;Humidity;BMP_temperature;BMP_pressure;BME280_temperature;BME280_humidity;BME280_pressure;Samples;Min_cycle;Max_cycle;Signal;HPM_P1;HPM_P2
2022/02/20 00:00:01;;;;;;;1.73;0.80;;;;;;;;;;5064634;28;20218;-77
2022/02/20 00:02:28;;;;;;;4.73;0.90;;;;;;;;;;5058933;28;20208;-77
2022/02/20 00:04:55;;;;;;;4.27;0.90;;;;;;;;;;5063019;28;20230;-77
2022/02/20 00:07:22;;;;;;;3.80;1.03;;;;;;;;;;5065052;28;20306;-77
2022/02/20 00:09:51;;;;;;;4.37;1.20;;;;;;;;;;5065172;28;20198;-78
2022/02/20 00:12:18;;;;;;;3.17;1.00;;;;;;;;;;5059094;28;20313;-77
2022/02/20 00:14:45;;;;;;;1.93;0.93;;;;;;;;;;5064483;28;20228;-77
2022/02/20 00:17:12;;;;;;;5.30;1.10;;;;;;;;;;5066636;28;20226;-78
2022/02/20 00:19:39;;;;;;;4.33;1.23;;;;;;;;;;5067891;28;20278;-78
2022/02/20 00:22:06;;;;;;;2.83;0.90;;;;;;;;;;5066141;28;20393;-78
2022/02/20 00:24:34;;;;;;;6.40;1.00;;;;;;;;;;5067969;28;20202;-77
2022/02/20 00:27:02;;;;;;;5.67;1.10;;;;;;;;;;5063085;28;20264;-78
2022/02/20 00:29:29;;;;;;;4.27;1.00;;;;;;;;;;5066578;28;20636;-77
2022/02/20 00:31:57;;;;;;;6.20;1.10;;;;;;;;;;5063601;28;20285;-78
2022/02/20 00:34:24;;;;;;;1.60;0.70;;;;;;;;;;5065531;28;20711;-79
2022/02/20 00:36:51;;;;;;;3.67;1.20;;;;;;;;;;5064462;28;20595;-79
2022/02/20 00:39:18;;;;;;;6.30;1.60;;;;;;;;;;5064084;28;20216;-79
2022/02/20 00:41:45;;;;;;;4.13;1.17;;;;;;;;;;5065757;28;20224;-79
2022/02/20 00:44:14;;;;;;;2.30;0.90;;;;;;;;;;5064423;28;20323;-79
2022/02/20 00:46:41;;;;;;;3.60;0.97;;;;;;;;;;5063846;28;20664;-78
2022/02/20 00:49:08;;;;;;;4.50;0.90;;;;;;;;;;5066012;28;20301;-80
2022/02/20 00:51:38;;;;;;;4.77;1.20;;;;;;;;;;5063836;28;20576;-78
2022/02/20 00:54:08;;;;;;;1.87;0.90;;;;;;;;;;5062325;28;20205;-80
2022/02/20 00:56:35;;;;;;;5.10;1.30;;;;;;;;;;5069096;28;20230;-79
2022/02/20 00:59:02;;;;;;;4.67;1.20;;;;;;;;;;5062766;28;20213;-81
2022/02/20 01:01:31;;;;;;;4.47;1.20;;;;;;;;;;5060102;28;20742;-80
2022/02/20 01:03:58;;;;;;;2.03;0.73;;;;;;;;;;5064045;28;20292;-77
2022/02/20 01:06:25;;;;;;;9.37;1.30;;;;;;;;;;5066748;28;20232;-79
2022/02/20 01:08:53;;;;;;;6.47;1.10;;;;;;;;;;5068651;28;20297;-81
2022/02/20 01:11:20;;;;;;;6.37;1.33;;;;;;;;;;5064251;28;20194;-79
2022/02/20 01:13:48;;;;;;;6.87;1.30;;;;;;;;;;5066200;28;20295;-81
2022/02/20 01:16:16;;;;;;;2.87;0.97;;;;;;;;;;5062934;28;20321;-79
2022/02/20 01:18:44;;;;;;;3.23;0.90;;;;;;;;;;5064138;28;20287;-80
2022/02/20 01:21:12;;;;;;;5.10;1.13;;;;;;;;;;5068666;28;20222;-79
2022/02/20 01:23:39;;;;;;;5.97;1.20;;;;;;;;;;5068105;28;20230;-78
2022/02/20 01:26:06;;;;;;;5.77;1.30;;;;;;;;;;5071914;28;20308;-80
2022/02/20 01:28:33;;;;;;;3.03;1.13;;;;;;;;;;5068616;28;20214;-82
2022/02/20 01:31:00;;;;;;;8.73;1.50;;;;;;;;;;5065657;28;20198;-78
2022/02/20 01:33:27;;;;;;;4.20;1.03;;;;;;;;;;5071384;28;20296;-81
2022/02/20 01:35:57;;;;;;;6.27;1.30;;;;;;;;;;5068899;28;20220;-79
2022/02/20 01:38:24;;;;;;;6.83;1.40;;;;;;;;;;5070544;28;20210;-81
2022/02/20 01:40:51;;;;;;;2.50;0.97;;;;;;;;;;5067581;28;20598;-81
2022/02/20 01:43:18;;;;;;;8.37;1.63;;;;;;;;;;5066373;28;20431;-79
2022/02/20 01:45:45;;;;;;;9.50;1.33;;;;;;;;;;5069219;28;20719;-80
2022/02/20 01:48:13;;;;;;;7.63;1.57;;;;;;;;;;5071903;28;20209;-81
2022/02/20 01:50:40;;;;;;;9.23;1.57;;;;;;;;;;5067332;28;20205;-83
2022/02/20 01:53:08;;;;;;;4.83;1.40;;;;;;;;;;5070590;28;20255;-79
2022/02/20 01:55:36;;;;;;;4.67;1.00;;;;;;;;;;5069430;28;20206;-83
2022/02/20 01:58:03;;;;;;;5.03;1.20;;;;;;;;;;5068719;28;20206;-79
2022/02/20 02:00:30;;;;;;;4.93;1.30;;;;;;;;;;5068527;28;20219;-76
2022/02/20 02:02:57;;;;;;;6.57;1.63;;;;;;;;;;5068548;28;20221;-77
2022/02/20 02:05:26;;;;;;;6.73;1.50;;;;;;;;;;5068560;28;20674;-76
2022/02/20 02:07:53;;;;;;;2.30;1.00;;;;;;;;;;5069583;28;20228;-77
2022/02/20 02:10:22;;;;;;;8.50;1.33;;;;;;;;;;5074669;28;20213;-78
2022/02/20 02:12:49;;;;;;;4.30;0.90;;;;;;;;;;5072037;28;20301;-79
2022/02/20 02:15:16;;;;;;;10.40;1.30;;;;;;;;;;5072272;28;20194;-78
2022/02/20 02:17:44;;;;;;;7.57;0.97;;;;;;;;;;5069390;28;20324;-77
2022/02/20 02:20:11;;;;;;;9.43;1.83;;;;;;;;;;5067048;28;20295;-77
2022/02/20 02:22:40;;;;;;;6.83;1.50;;;;;;;;;;5069075;28;20293;-78
2022/02/20 02:25:08;;;;;;;10.10;1.60;;;;;;;;;;5070536;28;20202;-79
2022/02/20 02:27:36;;;;;;;4.27;1.30;;;;;;;;;;5067018;28;20313;-79
2022/02/20 02:30:04;;;;;;;5.10;1.63;;;;;;;;;;5067546;28;20199;-78
2022/02/20 02:32:31;;;;;;;10.97;1.80;;;;;;;;;;5067747;28;20368;-78
2022/02/20 02:34:59;;;;;;;5.87;1.53;;;;;;;;;;5070041;28;20198;-78
2022/02/20 02:37:26;;;;;;;4.67;1.30;;;;;;;;;;5066463;28;20763;-77
2022/02/20 02:39:55;;;;;;;5.23;1.43;;;;;;;;;;5068667;28;20265;-78
2022/02/20 02:42:22;;;;;;;8.50;1.83;;;;;;;;;;5068340;28;20257;-78
2022/02/20 02:44:49;;;;;;;8.20;1.70;;;;;;;;;;5068634;28;20293;-79
2022/02/20 02:47:16;;;;;;;12.63;2.00;;;;;;;;;;5066661;28;20341;-80
2022/02/20 02:49:43;;;;;;;7.17;1.93;;;;;;;;;;5069751;28;20202;-78
2022/02/20 02:52:11;;;;;;;6.37;1.83;;;;;;;;;;5069532;28;20206;-80
2022/02/20 02:54:38;;;;;;;11.73;2.30;;;;;;;;;;5069887;28;20206;-81
2022/02/20 02:57:06;;;;;;;17.57;2.50;;;;;;;;;;5067125;28;20219;-81
2022/02/20 02:59:34;;;;;;;7.17;2.40;;;;;;;;;;5067734;28;20297;-79
2022/02/20 03:02:03;;;;;;;12.63;2.47;;;;;;;;;;5067858;28;20773;-80
2022/02/20 03:04:31;;;;;;;10.53;2.50;;;;;;;;;;5068748;28;20668;-82
2022/02/20 03:06:58;;;;;;;8.37;2.10;;;;;;;;;;5066386;28;20852;-81
2022/02/20 03:09:26;;;;;;;12.57;2.83;;;;;;;;;;5067955;28;20262;-80
2022/02/20 03:11:53;;;;;;;8.83;2.20;;;;;;;;;;5068224;28;20260;-79
2022/02/20 03:14:22;;;;;;;8.03;2.30;;;;;;;;;;5066515;28;20205;-78
2022/02/20 03:16:49;;;;;;;13.90;2.50;;;;;;;;;;5066747;28;20230;-82
2022/02/20 03:19:16;;;;;;;4.67;2.23;;;;;;;;;;5065292;28;20232;-79
2022/02/20 03:21:43;;;;;;;13.37;2.50;;;;;;;;;;5067150;28;20268;-78
2022/02/20 03:24:10;;;;;;;8.37;2.13;;;;;;;;;;5066560;28;20202;-78
2022/02/20 03:26:38;;;;;;;11.73;2.40;;;;;;;;;;5065859;28;20226;-79
2022/02/20 03:29:05;;;;;;;5.97;2.37;;;;;;;;;;5066905;28;20298;-81
2022/02/20 03:31:34;;;;;;;13.07;2.60;;;;;;;;;;5066727;28;20285;-80
2022/02/20 03:34:01;;;;;;;12.10;3.50;;;;;;;;;;5068398;28;20465;-81
2022/02/20 03:36:31;;;;;;;10.90;2.17;;;;;;;;;;5067570;28;20567;-80
2022/02/20 03:38:58;;;;;;;9.00;2.27;;;;;;;;;;5069356;28;20285;-80
2022/02/20 03:41:25;;;;;;;8.63;2.17;;;;;;;;;;5066853;28;20245;-81
2022/02/20 03:43:52;;;;;;;6.17;2.07;;;;;;;;;;5063965;28;20210;-79
2022/02/20 03:46:20;;;;;;;13.13;2.23;;;;;;;;;;5067650;28;20305;-81
2022/02/20 03:48:48;;;;;;;8.87;2.53;;;;;;;;;;5062915;28;20198;-79
2022/02/20 03:51:15;;;;;;;14.63;3.10;;;;;;;;;;5071386;28;20198;-80
2022/02/20 03:53:43;;;;;;;9.40;2.30;;;;;;;;;;5067143;28;20645;-81
2022/02/20 03:56:10;;;;;;;13.03;2.07;;;;;;;;;;5065224;28;20230;-81
2022/02/20 03:58:38;;;;;;;7.83;2.80;;;;;;;;;;5066208;28;20743;-80
2022/02/20 04:01:05;;;;;;;15.37;2.90;;;;;;;;;;5066412;28;20291;-79
2022/02/20 04:03:33;;;;;;;11.97;2.33;;;;;;;;;;5069114;28;20305;-81
2022/02/20 04:06:01;;;;;;;7.93;2.57;;;;;;;;;;5064814;28;20746;-80
2022/02/20 04:08:28;;;;;;;10.90;2.30;;;;;;;;;;5068002;28;20687;-81
2022/02/20 04:10:55;;;;;;;8.53;2.63;;;;;;;;;;5061128;28;20730;-78
2022/02/20 04:13:22;;;;;;;7.30;2.70;;;;;;;;;;5071193;28;20201;-82
2022/02/20 04:15:50;;;;;;;15.37;2.67;;;;;;;;;;5067911;28;20230;-80
2022/02/20 04:18:17;;;;;;;7.53;2.83;;;;;;;;;;5069509;28;20240;-82
2022/02/20 04:20:44;;;;;;;7.83;2.47;;;;;;;;;;5067131;28;20227;-80
2022/02/20 04:23:12;;;;;;;7.13;2.50;;;;;;;;;;5068515;28;20259;-80
2022/02/20 04:25:40;;;;;;;13.40;2.80;;;;;;;;;;5064676;28;20291;-80
2022/02/20 04:28:07;;;;;;;11.77;3.33;;;;;;;;;;5066733;28;20576;-81
2022/02/20 04:30:34;;;;;;;10.53;3.17;;;;;;;;;;5066523;28;20212;-80
2022/02/20 04:33:02;;;;;;;8.90;3.13;;;;;;;;;;5066611;28;20624;-81
2022/02/20 04:35:31;;;;;;;14.67;3.63;;;;;;;;;;5069052;28;20210;-81
2022/02/20 04:37:58;;;;;;;12.80;3.20;;;;;;;;;;5065596;28;20232;-83
2022/02/20 04:40:27;;;;;;;16.13;3.07;;;;;;;;;;5066767;28;20302;-83
2022/02/20 04:42:54;;;;;;;17.67;3.37;;;;;;;;;;5065656;28;20229;-83
2022/02/20 04:45:21;;;;;;;16.60;3.80;;;;;;;;;;5066588;28;20198;-80
2022/02/20 04:47:48;;;;;;;13.30;3.37;;;;;;;;;;5064762;28;20202;-81
2022/02/20 04:50:15;;;;;;;8.33;2.80;;;;;;;;;;5066951;28;20206;-81
2022/02/20 04:52:43;;;;;;;6.40;3.13;;;;;;;;;;5066843;28;20205;-79
2022/02/20 04:55:10;;;;;;;7.63;2.70;;;;;;;;;;5066319;28;20639;-79
2022/02/20 04:57:41;;;;;;;10.67;2.90;;;;;;;;;;5068576;28;20230;-79
2022/02/20 05:00:09;;;;;;;9.83;2.83;;;;;;;;;;5067497;28;20585;-81
2022/02/20 05:02:36;;;;;;;11.00;2.93;;;;;;;;;;5066911;28;20244;-80
2022/02/20 05:05:04;;;;;;;13.87;3.03;;;;;;;;;;5070306;28;20609;-80
2022/02/20 05:07:31;;;;;;;9.80;2.90;;;;;;;;;;5071612;28;20234;-81
2022/02/20 05:09:58;;;;;;;13.67;3.17;;;;;;;;;;5066865;28;20270;-81
2022/02/20 05:12:25;;;;;;;12.37;3.00;;;;;;;;;;5064633;28;20621;-80
2022/02/20 05:14:54;;;;;;;10.47;2.50;;;;;;;;;;5064142;28;20678;-80
2022/02/20 05:17:21;;;;;;;15.13;3.10;;;;;;;;;;5076748;22;20230;-78
2022/02/20 05:19:48;;;;;;;7.67;2.73;;;;;;;;;;5063013;28;20209;-78
2022/02/20 05:22:16;;;;;;;6.77;2.50;;;;;;;;;;5064762;28;20313;-78
2022/02/20 05:24:46;;;;;;;11.50;2.70;;;;;;;;;;5067546;28;20212;-78
2022/02/20 05:27:13;;;;;;;13.10;3.43;;;;;;;;;;5049329;28;20751;-78
2022/02/20 05:29:40;;;;;;;10.47;2.97;;;;;;;;;;5044768;28;20293;-78
2022/02/20 05:32:10;;;;;;;11.03;3.50;;;;;;;;;;5045944;28;20202;-78
2022/02/20 05:34:37;;;;;;;14.17;3.37;;;;;;;;;;5044084;28;20207;-78
2022/02/20 05:37:07;;;;;;;14.13;3.53;;;;;;;;;;5046748;28;20220;-78
2022/02/20 05:39:34;;;;;;;13.53;3.30;;;;;;;;;;5044675;28;20214;-78
2022/02/20 05:42:01;;;;;;;16.97;3.20;;;;;;;;;;5040146;28;20234;-78
2022/02/20 05:44:28;;;;;;;11.00;2.90;;;;;;;;;;5043462;28;20330;-78
2022/02/20 05:46:56;;;;;;;12.03;2.87;;;;;;;;;;5039788;28;20235;-78
2022/02/20 05:49:24;;;;;;;11.93;3.07;;;;;;;;;;5042078;28;20208;-78
2022/02/20 05:51:51;;;;;;;14.53;3.67;;;;;;;;;;5041597;28;20236;-78
2022/02/20 05:54:19;;;;;;;13.47;3.50;;;;;;;;;;5042726;28;20211;-78
2022/02/20 05:56:46;;;;;;;9.70;2.90;;;;;;;;;;5044088;28;20314;-78
2022/02/20 05:59:13;;;;;;;10.90;3.20;;;;;;;;;;5042379;28;20215;-78
2022/02/20 06:01:41;;;;;;;12.03;3.13;;;;;;;;;;5038883;28;20223;-77
2022/02/20 06:04:08;;;;;;;9.90;3.23;;;;;;;;;;5042100;28;20204;-78
2022/02/20 06:06:36;;;;;;;9.53;2.73;;;;;;;;;;5046224;28;20238;-78
2022/02/20 06:09:04;;;;;;;12.83;2.60;;;;;;;;;;5048594;28;20670;-78
2022/02/20 06:11:31;;;;;;;7.97;2.77;;;;;;;;;;5046574;28;20512;-78
2022/02/20 06:13:58;;;;;;;10.57;2.37;;;;;;;;;;5045177;28;20207;-78
2022/02/20 06:16:25;;;;;;;20.13;3.00;;;;;;;;;;5047584;28;20317;-78
2022/02/20 06:18:53;;;;;;;18.47;2.53;;;;;;;;;;5048086;28;20218;-78
2022/02/20 06:21:20;;;;;;;9.23;2.50;;;;;;;;;;5044277;28;20298;-79
2022/02/20 06:23:48;;;;;;;8.93;2.73;;;;;;;;;;5044935;28;21356;-78
2022/02/20 06:26:15;;;;;;;7.73;2.43;;;;;;;;;;5047479;28;20237;-78
2022/02/20 06:28:43;;;;;;;10.20;2.57;;;;;;;;;;5047266;28;20219;-78
2022/02/20 06:31:10;;;;;;;9.40;2.33;;;;;;;;;;5047603;28;20207;-78
2022/02/20 06:33:37;;;;;;;5.40;2.13;;;;;;;;;;5047945;28;20217;-78
2022/02/20 06:36:04;;;;;;;7.03;2.03;;;;;;;;;;5044417;28;20688;-78
2022/02/20 06:38:31;;;;;;;16.20;2.13;;;;;;;;;;5046784;28;20296;-78
2022/02/20 06:41:01;;;;;;;11.07;2.57;;;;;;;;;;5044951;28;20206;-78
2022/02/20 06:43:28;;;;;;;9.70;2.20;;;;;;;;;;5046014;28;20223;-78
2022/02/20 06:45:55;;;;;;;7.30;2.53;;;;;;;;;;5046806;28;20574;-77
2022/02/20 06:48:24;;;;;;;11.87;1.87;;;;;;;;;;5045729;28;20210;-78
2022/02/20 06:50:51;;;;;;;11.83;2.50;;;;;;;;;;5046427;28;20212;-78
2022/02/20 06:53:18;;;;;;;7.43;1.93;;;;;;;;;;5046643;28;20289;-77
2022/02/20 06:55:45;;;;;;;11.80;2.20;;;;;;;;;;5046187;28;20759;-77
2022/02/20 06:58:14;;;;;;;7.33;1.73;;;;;;;;;;5045405;28;20302;-78
2022/02/20 07:00:41;;;;;;;12.90;2.07;;;;;;;;;;5048099;28;20559;-78
2022/02/20 07:03:08;;;;;;;8.27;1.87;;;;;;;;;;5047151;28;20235;-78
2022/02/20 07:05:36;;;;;;;9.90;2.03;;;;;;;;;;5046782;28;20294;-78
2022/02/20 07:08:03;;;;;;;11.67;1.87;;;;;;;;;;5047687;28;20207;-78
2022/02/20 07:10:30;;;;;;;6.73;1.60;;;;;;;;;;5047309;28;20203;-77
2022/02/20 07:12:57;;;;;;;5.73;1.70;;;;;;;;;;5045977;28;20210;-77
2022/02/20 07:15:26;;;;;;;12.40;1.83;;;;;;;;;;5042685;28;20287;-77
2022/02/20 07:17:54;;;;;;;7.93;1.87;;;;;;;;;;5044986;28;20265;-78
2022/02/20 07:20:21;;;;;;;14.93;2.20;;;;;;;;;;5047177;28;20216;-78
2022/02/20 07:22:48;;;;;;;10.43;1.77;;;;;;;;;;5046623;28;20226;-77
2022/02/20 07:25:15;;;;;;;14.30;1.97;;;;;;;;;;5046262;28;20206;-78
2022/02/20 07:27:44;;;;;;;7.77;1.77;;;;;;;;;;5044400;28;20692;-78
2022/02/20 07:30:12;;;;;;;9.90;1.63;;;;;;;;;;5046818;28;20207;-77
2022/02/20 07:32:41;;;;;;;9.90;1.83;;;;;;;;;;5045378;28;20203;-77
2022/02/20 07:35:09;;;;;;;10.43;1.63;;;;;;;;;;5047407;28;20656;-77
2022/02/20 07:37:36;;;;;;;10.63;1.77;;;;;;;;;;5045048;28;20265;-77
2022/02/20 07:40:04;;;;;;;5.53;1.30;;;;;;;;;;5045242;28;20271;-77
2022/02/20 07:42:31;;;;;;;7.33;1.60;;;;;;;;;;5046313;28;20223;-77
2022/02/20 07:44:58;;;;;;;5.40;1.23;;;;;;;;;;5045410;28;20661;-78
2022/02/20 07:47:25;;;;;;;7.80;1.87;;;;;;;;;;5046686;28;20229;-79
2022/02/20 07:49:54;;;;;;;8.70;1.33;;;;;;;;;;5042924;28;20479;-79
2022/02/20 07:52:21;;;;;;;3.43;1.00;;;;;;;;;;5048027;28;20645;-79
2022/02/20 07:54:48;;;;;;;9.67;1.47;;;;;;;;;;5048099;28;20660;-79
2022/02/20 07:57:15;;;;;;;6.07;1.13;;;;;;;;;;5044921;28;20222;-78
2022/02/20 07:59:43;;;;;;;4.50;0.87;;;;;;;;;;5045580;28;20230;-79
2022/02/20 08:02:10;;;;;;;2.57;1.10;;;;;;;;;;5045915;28;20727;-78
2022/02/20 08:04:37;;;;;;;9.60;1.40;;;;;;;;;;5045603;28;20211;-78
2022/02/20 08:07:08;;;;;;;5.63;1.33;;;;;;;;;;5042455;28;20219;-79
2022/02/20 08:09:35;;;;;;;2.37;0.87;;;;;;;;;;5044472;28;20214;-79
2022/02/20 08:12:03;;;;;;;4.43;0.87;;;;;;;;;;5040752;28;20233;-79
2022/02/20 08:14:30;;;;;;;1.80;1.10;;;;;;;;;;5044572;28;20585;-78
2022/02/20 08:16:57;;;;;;;1.67;0.77;;;;;;;;;;5044447;28;20223;-79
2022/02/20 08:19:25;;;;;;;4.13;1.30;;;;;;;;;;5045815;28;20230;-78
2022/02/20 08:21:52;;;;;;;2.97;0.97;;;;;;;;;;5042862;28;20207;-78
2022/02/20 08:24:20;;;;;;;5.53;0.83;;;;;;;;;;5044202;28;20215;-79
2022/02/20 08:26:48;;;;;;;5.83;1.30;;;;;;;;;;5041401;28;20230;-81
2022/02/20 08:29:19;;;;;;;5.57;1.27;;;;;;;;;;5038451;28;20203;-80
2022/02/20 08:31:46;;;;;;;6.23;0.90;;;;;;;;;;5042832;28;20556;-81
2022/02/20 08:34:13;;;;;;;2.93;0.80;;;;;;;;;;5046998;28;20818;-80
2022/02/20 08:36:41;;;;;;;2.97;1.00;;;;;;;;;;5041591;28;20242;-80
2022/02/20 08:39:08;;;;;;;7.13;1.43;;;;;;;;;;5041463;28;20289;-80
2022/02/20 08:41:37;;;;;;;3.83;1.10;;;;;;;;;;5044188;28;20294;-79
2022/02/20 08:44:04;;;;;;;3.10;1.00;;;;;;;;;;5042492;28;20220;-79
2022/02/20 08:46:31;;;;;;;1.47;0.73;;;;;;;;;;5041479;28;20569;-80
2022/02/20 08:48:59;;;;;;;2.73;1.23;;;;;;;;;;5042110;28;20314;-79
2022/02/20 08:51:26;;;;;;;3.17;1.30;;;;;;;;;;5043379;28;20202;-81
2022/02/20 08:53:53;;;;;;;6.07;1.10;;;;;;;;;;5011398;28;20218;-80
2022/02/20 08:56:22;;;;;;;4.40;1.40;;;;;;;;;;5040843;28;20592;-80
2022/02/20 08:58:50;;;;;;;3.20;1.17;;;;;;;;;;5044150;28;20203;-80
2022/02/20 09:01:18;;;;;;;4.37;1.20;;;;;;;;;;5044353;28;20207;-79
2022/02/20 09:03:45;;;;;;;7.43;1.53;;;;;;;;;;5046908;28;20290;-80
2022/02/20 09:06:12;;;;;;;4.43;1.90;;;;;;;;;;5047128;28;20658;-79
2022/02/20 09:08:39;;;;;;;6.40;1.60;;;;;;;;;;5045538;28;20305;-80
2022/02/20 09:11:07;;;;;;;6.53;2.10;;;;;;;;;;5041910;28;20708;-81
2022/02/20 09:13:34;;;;;;;4.43;1.20;;;;;;;;;;5044060;28;20669;-81
2022/02/20 09:16:03;;;;;;;5.13;1.67;;;;;;;;;;5045201;28;20261;-80
2022/02/20 09:18:30;;;;;;;4.40;1.30;;;;;;;;;;5042496;28;20715;-81
2022/02/20 09:20:57;;;;;;;4.37;1.47;;;;;;;;;;5042695;28;20211;-79
2022/02/20 09:23:24;;;;;;;9.03;3.10;;;;;;;;;;5043466;28;20226;-79
2022/02/20 09:25:52;;;;;;;2.70;1.17;;;;;;;;;;5043624;28;20237;-79
2022/02/20 09:28:19;;;;;;;3.60;0.80;;;;;;;;;;5045943;28;20207;-80
2022/02/20 09:30:46;;;;;;;4.63;1.90;;;;;;;;;;5042307;28;20213;-81
2022/02/20 09:33:15;;;;;;;6.80;2.07;;;;;;;;;;5046192;28;20632;-81
2022/02/20 09:35:43;;;;;;;4.27;1.87;;;;;;;;;;5043232;28;20661;-81
2022/02/20 09:38:10;;;;;;;4.70;1.50;;;;;;;;;;5044771;28;20203;-80
2022/02/20 09:40:37;;;;;;;3.20;1.07;;;;;;;;;;5046586;28;20694;-81
2022/02/20 09:43:04;;;;;;;6.00;1.20;;;;;;;;;;5046792;28;20219;-82
2022/02/20 09:45:32;;;;;;;3.20;1.20;;;;;;;;;;5046713;28;20294;-80
2022/02/20 09:48:02;;;;;;;2.30;0.70;;;;;;;;;;5046578;28;20222;-80
2022/02/20 09:50:31;;;;;;;3.43;1.00;;;;;;;;;;5050740;28;20773;-81
2022/02/20 09:52:58;;;;;;;2.33;0.97;;;;;;;;;;5046781;28;21049;-79
2022/02/20 09:55:25;;;;;;;1.90;0.80;;;;;;;;;;5045086;28;20266;-79
2022/02/20 09:57:52;;;;;;;1.40;0.70;;;;;;;;;;5045570;28;20199;-79
2022/02/20 10:00:19;;;;;;;3.87;0.90;;;;;;;;;;5045269;28;20202;-79
2022/02/20 10:02:47;;;;;;;1.47;0.80;;;;;;;;;;5046561;28;20765;-79
2022/02/20 10:05:17;;;;;;;5.23;1.50;;;;;;;;;;5043542;28;20211;-79
2022/02/20 10:07:46;;;;;;;3.40;1.07;;;;;;;;;;5046029;28;20223;-79
2022/02/20 10:10:14;;;;;;;2.50;0.80;;;;;;;;;;5046859;28;20242;-79
2022/02/20 10:12:42;;;;;;;3.33;1.40;;;;;;;;;;5045723;28;20644;-78
2022/02/20 10:15:24;;;;;;;2.87;1.60;;;;;;;;;;5045786;28;20203;-79
2022/02/20 10:17:51;;;;;;;4.57;2.17;;;;;;;;;;5042381;28;20665;-79
2022/02/20 10:20:24;;;;;;;4.23;1.90;;;;;;;;;;5046104;28;20211;-79
2022/02/20 10:22:53;;;;;;;4.13;1.30;;;;;;;;;;5046639;28;20606;-79
2022/02/20 10:25:20;;;;;;;3.63;1.00;;;;;;;;;;5046145;28;20799;-79
2022/02/20 10:27:53;;;;;;;3.77;1.60;;;;;;;;;;5045008;28;20223;-78
2022/02/20 10:30:23;;;;;;;5.60;2.10;;;;;;;;;;5045521;28;20290;-78
2022/02/20 10:33:04;;;;;;;1.87;0.97;;;;;;;;;;5044372;28;20280;-79
2022/02/20 10:35:32;;;;;;;1.90;0.70;;;;;;;;;;5045430;28;20281;-78
2022/02/20 10:38:11;;;;;;;0.80;0.40;;;;;;;;;;5043884;28;20554;-79
2022/02/20 10:40:39;;;;;;;1.30;0.60;;;;;;;;;;5043963;28;20256;-78
2022/02/20 10:43:07;;;;;;;2.93;1.47;;;;;;;;;;5042076;28;20231;-78
2022/02/20 10:45:36;;;;;;;5.33;1.50;;;;;;;;;;5042451;28;20211;-78
2022/02/20 10:48:04;;;;;;;3.57;1.50;;;;;;;;;;5043250;28;20198;-79
2022/02/20 10:50:32;;;;;;;5.23;1.17;;;;;;;;;;5050099;28;20294;-78
2022/02/20 10:53:09;;;;;;;3.67;1.73;;;;;;;;;;5046260;28;20853;-79
2022/02/20 10:55:38;;;;;;;2.17;0.90;;;;;;;;;;5044435;28;21513;-78
2022/02/20 10:58:13;;;;;;;4.20;0.90;;;;;;;;;;5045698;28;20270;-78
2022/02/20 11:00:48;;;;;;;3.33;0.80;;;;;;;;;;5046303;28;20808;-78
2022/02/20 11:03:15;;;;;;;1.87;0.60;;;;;;;;;;5046162;28;20218;-78
2022/02/20 11:05:42;;;;;;;1.53;0.43;;;;;;;;;;5042865;28;20313;-78
2022/02/20 11:08:13;;;;;;;4.53;0.50;;;;;;;;;;5046711;28;20529;-78
2022/02/20 11:10:42;;;;;;;1.87;0.57;;;;;;;;;;5047345;28;20262;-78
2022/02/20 11:13:10;;;;;;;1.93;0.53;;;;;;;;;;5046623;28;20285;-78
2022/02/20 11:15:38;;;;;;;1.13;0.43;;;;;;;;;;5043663;28;20293;-78
2022/02/20 11:18:06;;;;;;;1.90;0.60;;;;;;;;;;5064103;22;20225;-78
2022/02/20 11:20:34;;;;;;;1.37;0.70;;;;;;;;;;5066205;28;20317;-76
2022/02/20 11:23:03;;;;;;;1.47;0.63;;;;;;;;;;5066810;28;20209;-76
2022/02/20 11:25:31;;;;;;;1.03;0.50;;;;;;;;;;5065261;28;20643;-75
2022/02/20 11:28:01;;;;;;;3.27;1.17;;;;;;;;;;5045110;28;20214;-76
2022/02/20 11:30:28;;;;;;;3.67;1.10;;;;;;;;;;5042667;28;20640;-77
2022/02/20 11:32:57;;;;;;;4.03;0.97;;;;;;;;;;5048371;28;20209;-77
2022/02/20 11:35:28;;;;;;;1.00;0.67;;;;;;;;;;5047485;28;20289;-78
2022/02/20 11:37:56;;;;;;;1.67;0.80;;;;;;;;;;5051741;28;20290;-77
2022/02/20 11:40:24;;;;;;;2.23;1.10;;;;;;;;;;5047990;28;20618;-76
2022/02/20 11:43:11;;;;;;;2.53;1.00;;;;;;;;;;5048502;28;20582;-75
2022/02/20 11:46:05;;;;;;;4.60;1.30;;;;;;;;;;5043338;28;20665;-78
2022/02/20 11:48:32;;;;;;;3.83;1.33;;;;;;;;;;5048348;28;20241;-78
2022/02/20 11:51:14;;;;;;;1.07;0.63;;;;;;;;;;5047158;28;20616;-74
2022/02/20 11:53:41;;;;;;;4.30;0.83;;;;;;;;;;5043101;28;20754;-75
2022/02/20 11:56:09;;;;;;;1.07;0.60;;;;;;;;;;5048104;28;20254;-77
2022/02/20 11:58:39;;;;;;;4.13;1.30;;;;;;;;;;5045696;28;20210;-78
2022/02/20 12:01:08;;;;;;;2.43;1.20;;;;;;;;;;5049572;28;20233;-75
2022/02/20 12:03:55;;;;;;;6.00;2.97;;;;;;;;;;5046494;28;20223;-77
2022/02/20 12:06:23;;;;;;;4.83;2.20;;;;;;;;;;5045379;28;20309;-77
2022/02/20 12:08:53;;;;;;;8.63;3.00;;;;;;;;;;5047916;28;20673;-78
2022/02/20 12:11:23;;;;;;;1.17;0.60;;;;;;;;;;5048641;28;20260;-77
2022/02/20 12:13:52;;;;;;;1.97;0.90;;;;;;;;;;5043540;28;20210;-75
2022/02/20 12:16:21;;;;;;;2.50;1.10;;;;;;;;;;5048223;28;20282;-75
2022/02/20 12:19:07;;;;;;;3.07;1.40;;;;;;;;;;5048439;28;20309;-76
2022/02/20 12:21:34;;;;;;;0.90;0.60;;;;;;;;;;5046217;28;20202;-76
2022/02/20 12:24:14;;;;;;;0.87;0.60;;;;;;;;;;5045697;28;20230;-77
2022/02/20 12:26:46;;;;;;;2.30;0.53;;;;;;;;;;5046289;28;20539;-77
2022/02/20 12:29:16;;;;;;;2.97;0.70;;;;;;;;;;5046145;28;20571;-78
2022/02/20 12:32:03;;;;;;;3.57;2.97;;;;;;;;;;5044256;28;20237;-77
2022/02/20 12:35:00;;;;;;;1.23;0.80;;;;;;;;;;5047451;28;20233;-76
2022/02/20 12:37:29;;;;;;;1.70;0.53;;;;;;;;;;5045041;28;20241;-78
2022/02/20 12:39:58;;;;;;;1.60;0.70;;;;;;;;;;5046931;28;20209;-75
2022/02/20 12:42:26;;;;;;;2.30;0.40;;;;;;;;;;5042447;28;20590;-77
2022/02/20 12:45:01;;;;;;;1.33;0.80;;;;;;;;;;5043624;28;20318;-77
2022/02/20 12:47:33;;;;;;;1.00;0.50;;;;;;;;;;5045905;28;20249;-76
2022/02/20 12:50:00;;;;;;;0.50;0.33;;;;;;;;;;5046069;28;20203;-78
2022/02/20 12:52:32;;;;;;;1.10;0.50;;;;;;;;;;5046115;28;20302;-78
2022/02/20 12:54:59;;;;;;;0.90;0.50;;;;;;;;;;5045997;28;20212;-77
2022/02/20 12:57:27;;;;;;;0.67;0.40;;;;;;;;;;5046405;28;20648;-77
2022/02/20 12:59:59;;;;;;;0.30;0.30;;;;;;;;;;5042097;28;20226;-77
2022/02/20 13:02:34;;;;;;;0.37;0.30;;;;;;;;;;5047855;28;20626;-78
2022/02/20 13:05:10;;;;;;;0.40;0.30;;;;;;;;;;5047197;28;20245;-76
2022/02/20 13:07:40;;;;;;;1.53;0.60;;;;;;;;;;5043296;28;20230;-77
2022/02/20 13:10:09;;;;;;;0.90;0.40;;;;;;;;;;5042554;28;20219;-77
2022/02/20 13:12:36;;;;;;;0.60;0.30;;;;;;;;;;5043449;28;20210;-76
2022/02/20 13:15:05;;;;;;;1.17;0.43;;;;;;;;;;5041727;28;20194;-76
2022/02/20 13:17:42;;;;;;;0.77;0.30;;;;;;;;;;5047038;28;20262;-76
2022/02/20 13:20:25;;;;;;;0.50;0.40;;;;;;;;;;5044571;28;20234;-76
2022/02/20 13:22:52;;;;;;;0.73;0.43;;;;;;;;;;5046884;28;20211;-76
2022/02/20 13:25:19;;;;;;;2.43;0.37;;;;;;;;;;5044237;28;20317;-76
2022/02/20 13:27:46;;;;;;;3.00;0.60;;;;;;;;;;5048530;28;20225;-76
2022/02/20 13:30:26;;;;;;;2.93;0.60;;;;;;;;;;5046954;28;20686;-76
2022/02/20 13:32:53;;;;;;;3.70;0.40;;;;;;;;;;5047207;28;20293;-76
2022/02/20 13:35:30;;;;;;;0.70;0.40;;;;;;;;;;5045116;28;20202;-76
2022/02/20 13:37:58;;;;;;;1.43;0.50;;;;;;;;;;5046758;28;20202;-75
2022/02/20 13:40:25;;;;;;;0.60;0.40;;;;;;;;;;5048813;28;20203;-78
2022/02/20 13:43:02;;;;;;;0.63;0.40;;;;;;;;;;5046899;28;20219;-76
2022/02/20 13:45:30;;;;;;;1.10;0.60;;;;;;;;;;5047387;28;20226;-76
2022/02/20 13:47:57;;;;;;;4.20;1.27;;;;;;;;;;5045120;28;20195;-76
2022/02/20 13:50:25;;;;;;;2.13;1.30;;;;;;;;;;5049363;28;20314;-78
2022/02/20 13:52:53;;;;;;;5.63;1.03;;;;;;;;;;5046471;28;20246;-76
2022/02/20 13:55:22;;;;;;;1.93;0.60;;;;;;;;;;5047998;28;20209;-78
2022/02/20 13:57:50;;;;;;;3.23;1.00;;;;;;;;;;5047714;28;20653;-78
2022/02/20 14:00:20;;;;;;;3.13;0.73;;;;;;;;;;5048643;28;20665;-78
2022/02/20 14:02:49;;;;;;;1.33;0.60;;;;;;;;;;5048084;28;20217;-79
2022/02/20 14:05:20;;;;;;;4.23;1.17;;;;;;;;;;5045390;28;20230;-77
2022/02/20 14:07:47;;;;;;;4.63;1.17;;;;;;;;;;5046665;28;20970;-77
2022/02/20 14:10:16;;;;;;;1.77;0.90;;;;;;;;;;5047148;28;20230;-77
2022/02/20 14:12:43;;;;;;;1.90;0.73;;;;;;;;;;5047025;28;20577;-78
2022/02/20 14:15:13;;;;;;;2.93;0.70;;;;;;;;;;5047510;28;20213;-77
2022/02/20 14:17:51;;;;;;;3.83;0.90;;;;;;;;;;5047220;28;20246;-77
2022/02/20 14:20:25;;;;;;;2.33;0.60;;;;;;;;;;5046526;28;20222;-77
2022/02/20 14:22:53;;;;;;;2.10;1.00;;;;;;;;;;5047963;28;20288;-77
2022/02/20 14:25:21;;;;;;;6.60;1.00;;;;;;;;;;5046683;28;20631;-78
2022/02/20 14:27:54;;;;;;;4.63;0.93;;;;;;;;;;5045955;28;20628;-78
2022/02/20 14:30:31;;;;;;;2.93;0.90;;;;;;;;;;5047111;28;20241;-78
2022/02/20 14:33:00;;;;;;;4.27;0.70;;;;;;;;;;5045297;28;20238;-78
2022/02/20 14:35:28;;;;;;;5.73;0.90;;;;;;;;;;5047566;28;20249;-78
2022/02/20 14:37:58;;;;;;;2.20;1.13;;;;;;;;;;5045180;28;20199;-78
2022/02/20 14:40:26;;;;;;;5.03;1.13;;;;;;;;;;5046943;28;20234;-77
2022/02/20 14:42:57;;;;;;;3.50;1.10;;;;;;;;;;5047390;28;20215;-78
2022/02/20 14:45:27;;;;;;;3.17;1.67;;;;;;;;;;5044073;28;20218;-78
2022/02/20 14:47:54;;;;;;;1.90;0.90;;;;;;;;;;5046873;28;20202;-77